Tylersport, PA (18971)

7:35 AM EST on November 24, 2014 (GMT -0500)
Milford Township | Change Station
CLOSE
Current Station
Personal Weather Station
Location: Quakertown, PA
Elevation: 544 ft
Nearby Weather Stations

Elev 544 ft 40.42 °N, 75.44 °W | Updated 3 minutes ago

Overcast
Overcast
62.0 °F
Feels Like 62.0 °F
N
2.0
Wind Variable Wind from South
Gusts 13.0 mph

Today
High -- | Low -- °F
--% Chance of Precip.
Yesterday
High -- | Low -- °F
Precip. -- in
6:57 AM 4:38 PM
Waxing Crescent, 5% visible
Pressure 29.64 in
Visibility 10.0 miles
Clouds Mostly Cloudy 1600 ft
Overcast 2200 ft
Dew Point 58 °F
Humidity 85%
Rainfall 0.61 in
Snow Depth Not available.
UV 0 out of 12
Pollen .10 out of 12
Air Quality Not available.
Flu Activity Not available.
METAR KXLL 241155Z AUTO 19012G19KT 10SM BKN016 OVC022 17/15 A2964 RMK AO2

More Conditions Fewer Conditions

Pressure 29.64 in
Visibility 10.0 miles
Clouds Mostly Cloudy 1600 ft
Overcast 2200 ft
Dew Point 58 °F
Humidity 85%
Rainfall 0.61 in
Snow Depth Not available.
UV 0 out of 12
Pollen .10 out of 12
Air Quality Not available.
Flu Activity Not available.
METAR KXLL 241155Z AUTO 19012G19KT 10SM BKN016 OVC022 17/15 A2964 RMK AO2

More Conditions Fewer Conditions

10-Day Weather Forecast

Almanac

Astronomy

Nov. 24, 2014 Rise Set
Actual Time
Civil Twilight
Nautical Twilight
Astronomical Twilight
Moon
Length of Visible Light
Length of Day
Tomorrow will be .
, % of the Moon is Illuminated

Today's Extremes

State Highs State Lows

Community

WunderPhotos

Upload Photos

1,773,319 photos uploaded!

WunderBlogs® & News

Nearby

Air Quality

  Air Quality AQ Index Pollutant
Not available.

Snow Depth

Station Depth Elevation

Earthquake Activity

City Distance Mag. Time & Date
Minimum magnitude displayed is 2.5.

Coastal Water Temperatures

Place Temperature

Nearby Weather Stations